Timeline UpdatesTrip UpdatesNews PostsPvt PostsTravel TipsAdmin PostsConv PostsFollowed PostsChat RequestsBlog PostsPNR Posts

Disclaimer
Search
 
 
Wed Jul 30, 2014 20:43:34 ISTHomeTrainsΣChainsAtlasPNRForumGalleryNewsFAQTripsMembersLoginFeedback
No Recent News for this Train
Other Trains in the News **new
Latest...
..
Tue Jul 01, 2014 (01:24PM)
⇐ Return Journey: Train# 53041

53042/Jaynagar - Howrah Passenger (UnReserved)

Sep 17 2013 (6:15PM)
Change Departure Station:
Change Arrival Station:
Post a Train Travel TipPost a Train Travel Tip **new
Post a Comment/Question/Picture/VideoPost a Comment/Question/Picture/Video
Pantry/Catering
✕ NO Pantry Car
✕ NO Catering
RSA - Rake Sharing
Rake/Coach Composition
Loco-SLR-GS-GS-GS-GS-GS-GS-GS-SLR
Loco
HWH/BWN WDM 2/3A
News    PNR    Forum    Time-Table    Availability    Fare Chart    Map    Arr/Dep History    Trips    Gallery    ΣChains    X/O    Timeline    
Travel Time: 0h 16m    1 halts    Distance: 12 km    Avg Speed: 45 km/hr
Type: Passenger
Zone: ER/Eastern
Departs @ 15:41 (Avg 2h 40m late)
Platform# ???
SMTWTFS
Rampurhat/RPH 
Arrives @ 15:57 (Avg 3h 18m late)
Platform# ???
SMTWTFS
Mallarpur/MLV 

1 halts. 1 intermediate Stations between Rampurhat and Mallarpur

Show ALL intermediate Stations  Show Old Time-Table

#CodeStation NameX/OArrivesAvgDepartsAvgHaltPFDay#KmSpeedElevZoneAddress
1JYGJaynagar (3)  -18:45+6--1-499.34168mECRDistt: Madhubani, Bihar
2KRHAKorahiaX  18:55-18:56-1m--1-492.64570mECRKorahia, Bihar
3KJIKhajauli  19:03+1119:04+131m--1-487.33970mECRMadhubani, Bihar
4LLPRLalit Lakshmipur  19:12-19:13-1m--1-482.14066mECRDokahar Rd, Bihar
5RJARajanagar  19:19+1319:20+171m--1-478.02765mECRRajnagar Distt: Madhubani, Bihar
6MBIMadhubani (3)X  19:42+919:43+141m--1-468.14562mECRMadhubani, Bihar
7PDWPandaul  19:55+1719:56+181m--1-459.13059mECRMadhubani, Bihar
8UGNAUgna Halt  20:03-20:04-1m--1-455.63357mECRUgna Halt, Bihar
9SKISakri Junction (5)  20:12+1720:17+215m--1-451.34455mECRMadhubani, Bihar
10SSNSShaheed Suraj Narayan Singh Halt  20:21-20:22-1m--1-448.32252mECRDarbhanga, Bihar
11TRSTarsaraiX  20:32+2020:33+271m--1-444.63854mECRDarbhanga, Bihar
12BJIHBijuli Halt  20:39-20:40-1m--1-440.81253mECRBijuli Halt, Bihar
13KKHTKakarghattiO  20:54+2020:55+271m--1-438.0854mECRDarbhanga, Bihar
14DBGDarbhanga Junction (5)  21:45+121:55+610m--1-431.73854mECRDarbhanga, Bihar
15LSILaheria Sarai (1)X  22:03+1522:08+165m11-426.64452mECRDarbhanga, Bihar
16TLWAThalwaraX  22:14+2022:15+241m--1-422.23356mECRDarbhanga, Bihar
17HYTHaiaghatX  22:26+2422:27+281m--1-416.23051mECRDarbhanga, Bihar
18RBZRambhaddarpur  22:37+2822:38+311m--1-411.25051mECRSamastipur, Bihar
19KSPKishanpurX  22:46+3222:47+381m--1-404.54751mECRSamastipur, Bihar
20MKPRMuktapur (1)  22:55+4022:56+451m11-398.21053mECRSamastipur, Bihar
21SPJSamastipur Junction (9)  23:20+1823:30+2710m--1-394.23655mECRSamastipur, Bihar
22UJPUjiarpur (2)  23:45+5523:46+1:091m--1-385.23151mECRSamastipur, Bihar
23NAZJNazirGanj  23:58+1:0623:59+1:111m--1-378.93651mECRNazirGanj, Bihar
24DSSDalsingh Sarai (2)  00:12+1:0300:13+1:081m22-371.01549mECR06278-221238, Bihar
25STJTSathajagat  00:31+1:0300:32+1:051m--2-366.52849mECRSathajagat, Bihar
26BCABachwara Junction  00:46+1:0000:47+1:141m--2-360.03149mECRBegusarai, Bihar
27TGATeghra (3)  01:04+1:0701:05+1:121m--2-351.11048mECRBegusarai, Bihar
28BUJBarauni Flag (2)  01:20+1:3701:21+1:371m--2-348.6949mECRDistt: Begusarai, Bihar
29BJUBarauni Junction (9)XO  01:55+4202:05+5410m42-343.63049mECRBegusarai, Bihar
30SAEDinkar Gram Simaria (3)  02:17+1:3902:18+1:591m--2-337.510228mECRBegusarai, Bihar
31RJORajendra Pul (1)X  02:36+1:3102:37+2:021m12-334.63249mECRSimaria, Bihar
32HTZHathidah Junction (2)X  02:43-02:44-1m--2-331.42350mECRMusahari, Bihar
33BRYABarhiya (3)  03:08+1:4303:09+1:441m--2-322.12247mECRBarahiya, Bihar
34GGSYGanga SahayX  03:16-03:17-1m--2-319.42544mECRKIUL, Bihar
35DMRXDumri Halt (1)  03:21-03:22-1m12-317.82849mECRNational Highway 80, Bihar
36DJSDhurani Jwas HaltX  03:29-03:30-1m--2-314.52046mECRLakhisarai, Bihar
37MKBMankathaXO  03:36+2:0403:37+2:091m--2-312.54247mECRNational Highway 80, Bihar
38LKRLuckeesarai Junction (2)  03:45+1:4903:46+1:501m--2-307.0252mECRLakhisarai, Bihar
39KIULKiul Junction (5)  04:28+1:0604:35+1:057m--2-305.64053mECRDist. Lakhisarai, Bihar
40DNREDhanauri  04:44+1:2804:45+1:291m--2-299.64248mERNational Highway 80, Bihar
41URENUren  04:52+1:3704:53+1:371m--2-294.75845mERUren, Bihar
42KJHKajra (2)  04:58+1:3904:59+1:391m--2-289.95550mERLakhisarai District, Bihar
43AHAAbhaipur  05:07+1:4205:08+1:431m--2-282.64052mERAbhaipur, Bihar
44MSDNMasudan  05:14+1:4405:15+1:441m--2-278.65145mERMasudan, Bihar
45DRHDharhara (2)X  05:22+1:4505:23+1:451m--2-272.65455mERDharhara, Bihar
46DRTPDasharathpur  05:29+1:4505:30+1:501m--2-267.14348mERDharhara, Bihar
47JMPJamalpur Junction (4)  05:39+1:3105:49+1:3610m--2-260.84759mERJamalpur 06344-243101, Bihar
48RPURRatanpur (2)  05:57+2:0805:58+2:091m--2-254.54946mERRatanpur Railway Station, Bihar
49BUPBariarpur (3)X  06:04+2:0906:05+2:101m--2-249.61042mERMunger, Bihar
50KPRDKalyanpur Road (3)  06:13+2:1006:14+2:111m--2-248.3940mERMunger, Bihar
51GNNAGangani (2)X  06:22+2:1006:23+2:101m--2-247.211638mERGangania, Bihar
52SGGSultanGanj (3)  06:31+2:1106:32+2:151m--2-231.74442mERSultanganj, Bihar
53MVVMaheshi (2)  06:41-06:42-1m--2-225.14137mERTilakpur, Bihar
54AKNAkbarnagar (3)  06:47+2:1106:48+2:151m--2-221.64439mERTilakpur, Bihar
55CTMPChhit Makhanpur (2)X  06:53+2:5706:54+2:571m--2-218.03138mERBhaunathpur, Bihar
56MPYMurarpur (2)  06:57+2:5806:58+2:581m--2-216.45938mERMau, Bihar
57NATNathnagar (2)X  07:03+2:1307:04+2:161m--2-211.42648mERBhagalpur, Bihar
58BGPBhagalpur Junction (6)X  07:15+1:5007:30+1:4915m--2-206.84549mERBhagalpur, Bihar
59SBOSabaur (3)  07:40+2:1607:41+2:251m--2-199.22242mERSabour, Bihar
60LMMLailakh Mamalkha (2)  07:59+2:1808:00+2:211m--2-192.65836mERLailakh Mamlkha, Bihar
61GGAGhoga (2)  08:06+2:2608:07+2:461m--2-186.86942mERGhoga, Bihar
62EKCEkchari (1)  08:12+2:4908:13+2:491m12-181.14437mERNational Highway 80, Bihar
63CLGKahalgaon (2)X  08:19+2:5108:20+2:541m12-176.74444mERBhagalpur, Bihar
64BKSLBikram Shila (2)X  08:31+2:5508:32+3:051m--2-168.71458mERBikram Shila, Bihar
65SVRPShivanarayanpur (2)  08:47+2:5908:48+3:121m--2-165.22147mERShivanarayanpur, Bihar
66PPTPirpainti (2)  09:14+2:3309:15+2:431m--2-156.34353mERBhagalpur, Bihar
67AMPLAmmapali (2)  09:21+4:0109:22+4:011m--2-152.16340mERAmmapali, Bihar
68MZCMirza Cheuki (3)X  09:26+3:1709:27+3:231m32-147.91138mERBihar, Bihar
69KRMAKaramtola (2)  10:00+3:0010:01+3:061m22-141.81935mERNational Highway 80, Bihar
70SBGSahibganj Junction (3)X  10:30+2:5310:40+3:0110m12-132.85838mERSahibganj, Jharkhand
71SLJSakrigali Junction (3)X  10:48+3:0810:49+3:161m--2-125.05345mERSakrigali, Jharkhand
72MJPMaharajpur (2)  10:56+3:0110:57+3:051m--2-118.93334mERMoharajpur, Jharkhand
73KPTOKaranpur Ato  11:10+3:2311:11+3:241m--2-111.76039mERKaranpur, Jharkhand
74TLJTaljhari  11:18+3:2611:19+3:321m--2-104.73638mERTaljhari, Jharkhand
75KXEKalian Chak  11:27+3:3111:28+3:331m--2-99.94845mERKalian Chak, Jharkhand
76TPHTinpahar Junction (3)  11:34+3:3511:35+3:361m22-95.03645mERBamangawan, Jharkhand
77DDXDhamdhamia (2)  11:46+3:3211:47+3:331m--2-88.42546mERDhamdhamia, Jharkhand
78BKLEBakudi (3)  11:52+3:3711:53+3:391m--2-86.31465mERBakudi, Jharkhand
79BHWBarharwa Junction (3)  12:27+3:1512:37+3:2210m22-78.44936mERBarharwa, Jharkhand
80GMANGumani (3)X  12:46+3:2612:47+3:281m--2-71.05731mERGumani, Jharkhand
81KLPKotalpukur (3)  12:54+3:3012:55+3:301m--2-64.35640mERKotalpukur, Jharkhand
82TBBTilbhita (3)X  13:03+3:3013:04+3:311m--2-56.84231mERTilbhita, Jharkhand
83PKRPakur (2)  13:10+2:5313:11+2:541m22-52.53637mERDist:- Pakur, Jharkhand
84NGFNagarnabi (3)  13:20+3:4813:21+3:491m12-47.13530mERState Highway 5, Jharkhand
85RJGRajgram (3)  13:30+3:4113:31+3:421m22-42.05832mERRajgram, West Bengal
86BSBRBanshlai Bridge (2)  13:38+3:3513:39+3:371m--2-35.35035mERState Highway 5, West Bengal
87MRRMurarai (3)X  13:45+3:1313:46+3:211m--2-30.35736mERMurarai, West Bengal
88CTRChatra (3)  13:54+3:4813:55+3:501m--2-22.75742mERChatra, West Bengal
89NHTNalhati Junction (4)XO  14:04+3:4714:06+3:542m22-14.15548mERNalhati, West Bengal
90SDLESwadinpur (3)X  14:14+4:0314:15+4:111m--2-6.7644mERDIST-BIRBHUM, West Bengal
91RPH»Rampurhat (3)»  15:26+2:3815:41+2:4015m--20.06241mERDIST - Birbhum, West Bengal
92TPFTarapith Road (2)  15:48+2:5415:49+2:561m--27.23945mERDist - Birbhum, West Bengal
93MLV•Mallarpur (3)•XO  15:57+3:1815:58+3:221m--212.47146mERDist - Birbhum, West Bengal
94GHLEGadadharpur (3)X  16:05+3:2616:06+3:291m2220.71352mERDist - Birbhum, West Bengal
95SNTSainthia Junction (4)X  16:40+3:0716:41+3:081m4228.07758mERDist - Birbhum, West Bengal
96BSLEBataspur (2)O  16:47+3:1016:48+3:101m--235.72154mERDist - Birbhum, West Bengal
97AMPAhmadpur Junction (3)X  17:04+2:4417:05+2:481m--241.31746mERDist - Birbhum, West Bengal
98KPLEKopai (2)  17:34+2:4817:35+2:501m--249.46148mERDist - Birbhum, West Bengal
99PNEPrantik (3)X  17:42+2:5017:43+2:501m--256.54248mERPrantik, West Bengal
100BHPBolpur Shantiniketan (3)X  17:49+2:4017:52+2:403m--260.76959mERBolpur, West Bengal
101BDHBhedia (2)  17:59+2:5218:00+2:541m--268.74041mERDist - Bardhaman, West Bengal
102PCQPichkurirdhal (3)X  18:07+2:5518:08+2:551m--273.45338mERDist - Bardhaman, West Bengal
103GKHGuskara (2)  18:15+2:5318:16+2:541m1279.63841mERDist - Bardhaman, West Bengal
104NRXNoadar Dhal (2)  18:26+2:4618:27+2:461m--286.13746mERdist - bardhaman, West Bengal
105BPSBanpas (3)XO  18:33+2:4718:34+2:471m--289.71146mERDist - Bardhaman, West Bengal
106JTLJhapater Dhal (4)X  18:54+2:3318:55+2:401m--293.5836mERDist - Bardhaman, West Bengal
107KANKhana Junction (5)XO  19:38+2:0619:39+2:061m--299.46542mERDist - Bardhaman, West Bengal
108TITTalit (4)X  19:44+2:0519:45+2:061m--2104.84637mERDist - Bardhaman, West Bengal
109BWNBarddhaman Junction (8)X  19:55+2:4420:15+2:4320m--2112.44534mERDist - Barddhaman, West Bengal
110BDCBandel Junction (7)  21:45+1:4921:50+1:495m--2179.73814mERdist - HOOGHLY, West Bengal
111CNSChuchura (3)X  21:56+2:3021:57+2:301m--2183.43615mERDist - HOOGHLY - 712102, West Bengal
112CGRChandan Nagar (3)  22:02+1:4622:03+1:491m--2186.54616mERDist -HOOGHLY - 712136, West Bengal
113SHESeoraphuli Junction (6)X  22:17+2:1422:18+2:201m--2197.13813mERBaidyabati, West Bengal
114SRPSerampore (4)  22:22+1:5422:23+1:541m--2199.63211mERdist - hooghly, West Bengal
115HWHKolkata Howrah Junction (23)  23:00+2:04-42219.3-10mERHowrah 711101, West Bengal
Scroll to Top
Scroll to Bottom